Ocean, New Jersey
Current Conditions -  °F | °C
As of 7:55 AM on Thursday 30 Oct 2014 (Local Time) from KBLM Reporting Station
Overcast Overcast  
Wind Chill: 42°   Ceiling: 200
Heat Index: 45°   Visibility: 0.25mi
Dew Point: 39°   Wind: 5mph
Humidity: 81%   Direction: 290°WNW
Pressure: 29.98"   Gusts: NA
Location:  40.2492°N, 74.0521°W
Report Text: KBLM 301155Z AUTO 29004KT 1/4SM OVC002 07/04 A2998 RMK AO1 10090 20060 52010
Loading
Personal Weather Stations






























Interactive Weather Map
Tropical Storm Tracking
New forecast layout! Learn more

10-Day Weather Forecast

Advertisements
Track Severe Weather on mobile